createdAt,value
2022-11-27T00:00:43.433Z,8.73
2022-11-27T00:03:10.036Z,8.50
2022-11-27T00:05:36.486Z,8.17
2022-11-27T00:08:02.840Z,9.03
2022-11-27T00:10:29.169Z,7.97
2022-11-27T00:12:55.508Z,7.60
2022-11-27T00:15:22.506Z,6.40
2022-11-27T00:17:48.846Z,6.37
2022-11-27T00:20:15.376Z,6.70
2022-11-27T00:22:41.712Z,6.43
2022-11-27T00:25:08.366Z,6.73
2022-11-27T00:27:34.708Z,5.67
2022-11-27T00:30:01.078Z,6.20
2022-11-27T00:32:27.442Z,4.70
2022-11-27T00:34:54.107Z,5.33
2022-11-27T00:37:20.427Z,5.23
2022-11-27T00:39:47.523Z,4.90
2022-11-27T00:42:13.908Z,4.80
2022-11-27T00:44:40.481Z,5.17
2022-11-27T00:47:07.077Z,4.77
2022-11-27T00:49:33.477Z,4.97
2022-11-27T00:51:59.818Z,5.20
2022-11-27T00:54:26.152Z,5.70
2022-11-27T00:56:52.496Z,4.87
2022-11-27T00:59:18.834Z,5.83
2022-11-27T01:01:46.287Z,5.27
2022-11-27T01:04:14.989Z,5.27
2022-11-27T01:06:42.313Z,5.20
2022-11-27T01:09:10.927Z,6.30
2022-11-27T01:11:37.366Z,7.03
2022-11-27T01:14:09.047Z,6.40
2022-11-27T01:16:38.550Z,6.70
2022-11-27T01:19:07.714Z,6.37
2022-11-27T01:21:34.836Z,6.00
2022-11-27T01:24:02.526Z,4.90
2022-11-27T01:26:29.227Z,6.97
2022-11-27T01:28:56.836Z,5.93
2022-11-27T01:31:26.218Z,5.60
2022-11-27T01:33:58.729Z,5.20
2022-11-27T01:36:25.911Z,4.87
2022-11-27T01:38:52.427Z,4.60
2022-11-27T01:41:18.805Z,4.93
2022-11-27T01:43:48.277Z,4.10
2022-11-27T01:46:39.236Z,5.17
2022-11-27T01:49:08.360Z,5.37
2022-11-27T01:51:41.253Z,4.57
2022-11-27T01:54:09.734Z,4.90
2022-11-27T01:56:36.928Z,4.50
2022-11-27T02:03:16.179Z,5.70
2022-11-27T02:05:42.734Z,4.67
2022-11-27T02:08:12.088Z,4.63
2022-11-27T02:10:49.455Z,5.17
2022-11-27T02:13:33.577Z,4.60
2022-11-27T02:16:29.651Z,4.57
2022-11-27T02:19:13.302Z,4.47
2022-11-27T02:21:54.529Z,5.47
2022-11-27T02:24:48.310Z,4.90
2022-11-27T02:27:36.501Z,5.33
2022-11-27T02:30:05.343Z,5.10
2022-11-27T02:32:40.134Z,5.03
2022-11-27T02:35:32.032Z,4.60
2022-11-27T02:38:10.443Z,5.47
2022-11-27T02:40:52.822Z,4.60
2022-11-27T02:43:24.978Z,4.50
2022-11-27T02:45:52.329Z,4.80
2022-11-27T02:48:22.648Z,5.03
2022-11-27T02:50:51.350Z,3.80
2022-11-27T02:53:30.894Z,4.60
2022-11-27T02:55:59.315Z,4.83
2022-11-27T02:58:29.053Z,5.47
2022-11-27T03:00:57.170Z,5.03
2022-11-27T03:03:29.504Z,5.50
2022-11-27T03:06:01.299Z,5.97
2022-11-27T03:08:41.300Z,4.90
2022-11-27T03:11:10.328Z,5.50
2022-11-27T03:13:39.331Z,5.83
2022-11-27T03:16:37.509Z,6.43
2022-11-27T03:19:22.006Z,6.10
2022-11-27T03:21:58.204Z,5.53
2022-11-27T03:24:25.061Z,6.40
2022-11-27T03:26:51.903Z,5.23
2022-11-27T03:29:35.959Z,5.50
2022-11-27T03:32:02.969Z,6.27
2022-11-27T03:34:29.558Z,6.67
2022-11-27T03:36:56.010Z,7.43
2022-11-27T03:39:23.526Z,6.60
2022-11-27T03:42:22.257Z,6.43
2022-11-27T03:45:19.247Z,6.77
2022-11-27T03:47:57.347Z,9.43
2022-11-27T03:50:29.555Z,6.43
2022-11-27T03:53:17.751Z,8.50
2022-11-27T03:55:53.447Z,6.20
2022-11-27T03:58:37.847Z,6.03
2022-11-27T04:01:09.762Z,5.60
2022-11-27T04:03:36.536Z,6.57
2022-11-27T04:06:03.430Z,5.53
2022-11-27T04:08:29.904Z,5.60
2022-11-27T04:10:56.339Z,6.53
2022-11-27T04:13:22.692Z,6.57
2022-11-27T04:15:49.172Z,6.57
2022-11-27T04:18:15.517Z,6.37
2022-11-27T04:20:41.846Z,9.03
2022-11-27T04:23:08.268Z,7.33
2022-11-27T04:25:34.658Z,6.00
2022-11-27T04:28:01.132Z,5.57
2022-11-27T04:30:27.474Z,5.57
2022-11-27T04:32:53.914Z,6.63
2022-11-27T04:35:20.273Z,7.53
2022-11-27T04:37:46.599Z,6.77
2022-11-27T04:40:13.287Z,6.03
2022-11-27T04:42:39.666Z,6.13
2022-11-27T04:45:06.557Z,5.97
2022-11-27T04:47:32.905Z,6.07
2022-11-27T04:49:59.229Z,8.90
2022-11-27T04:52:25.547Z,9.00
2022-11-27T04:54:55.451Z,7.33
2022-11-27T04:57:26.167Z,6.87
2022-11-27T04:59:52.545Z,8.10
2022-11-27T05:02:18.940Z,8.17
2022-11-27T05:04:45.302Z,8.70
2022-11-27T05:07:11.682Z,8.77
2022-11-27T05:09:38.087Z,7.63
2022-11-27T05:12:04.699Z,6.93
2022-11-27T05:14:31.072Z,7.37
2022-11-27T05:16:58.657Z,8.13
2022-11-27T05:19:27.949Z,7.10
2022-11-27T05:21:54.910Z,6.90
2022-11-27T05:24:24.201Z,6.87
2022-11-27T05:26:50.938Z,5.90
2022-11-27T05:29:18.072Z,6.00
2022-11-27T05:31:44.684Z,5.53
2022-11-27T05:34:11.458Z,5.40
2022-11-27T05:36:38.303Z,6.00
2022-11-27T05:39:06.838Z,5.87
2022-11-27T05:41:34.401Z,6.10
2022-11-27T05:44:00.748Z,5.47
2022-11-27T05:46:27.224Z,5.77
2022-11-27T05:48:53.583Z,6.07
2022-11-27T05:51:19.933Z,6.30
2022-11-27T05:53:46.300Z,6.63
2022-11-27T05:56:15.590Z,6.00
2022-11-27T05:58:43.256Z,7.73
2022-11-27T06:01:11.164Z,7.43
2022-11-27T06:03:39.005Z,5.73
2022-11-27T06:06:14.822Z,6.50
2022-11-27T06:08:41.812Z,6.60
2022-11-27T06:11:10.194Z,6.37
2022-11-27T06:13:37.697Z,5.80
2022-11-27T06:16:10.664Z,5.87
2022-11-27T06:18:37.056Z,5.60
2022-11-27T06:21:08.343Z,6.03
2022-11-27T06:23:35.358Z,5.53
2022-11-27T06:26:13.702Z,5.77
2022-11-27T06:28:40.937Z,5.43
2022-11-27T06:31:17.769Z,5.70
2022-11-27T06:33:44.870Z,5.23
2022-11-27T06:36:11.340Z,5.73
2022-11-27T06:38:38.747Z,6.13
2022-11-27T06:41:11.152Z,5.93
2022-11-27T06:43:37.862Z,5.60
2022-11-27T06:46:06.431Z,6.13
2022-11-27T06:48:33.754Z,6.20
2022-11-27T06:51:05.380Z,6.23
2022-11-27T06:53:34.190Z,5.47
2022-11-27T06:56:03.249Z,5.77
2022-11-27T06:58:31.172Z,5.40
2022-11-27T07:00:59.296Z,4.60
2022-11-27T07:03:26.376Z,5.43
2022-11-27T07:05:52.727Z,5.57
2022-11-27T07:08:19.136Z,5.40
2022-11-27T07:10:45.498Z,6.30
2022-11-27T07:13:11.843Z,5.73
2022-11-27T07:15:38.162Z,5.30
2022-11-27T07:18:04.542Z,5.50
2022-11-27T07:20:31.983Z,5.53
2022-11-27T07:22:58.278Z,5.77
2022-11-27T07:25:24.608Z,5.50
2022-11-27T07:27:50.919Z,5.13
2022-11-27T07:30:17.533Z,6.57
2022-11-27T07:32:43.869Z,5.37
2022-11-27T07:35:10.314Z,6.23
2022-11-27T07:37:36.636Z,6.33
2022-11-27T07:40:03.652Z,4.90
2022-11-27T07:42:39.071Z,6.07
2022-11-27T07:45:08.244Z,6.47
2022-11-27T07:47:34.546Z,5.93
2022-11-27T07:50:01.099Z,5.90
2022-11-27T07:52:27.872Z,6.83
2022-11-27T07:54:54.308Z,5.90
2022-11-27T07:57:20.669Z,7.07
2022-11-27T07:59:47.621Z,5.83
2022-11-27T08:02:14.399Z,6.50
2022-11-27T08:04:40.917Z,6.27
2022-11-27T08:07:07.463Z,6.30
2022-11-27T08:09:33.881Z,7.13
2022-11-27T08:12:00.220Z,6.53
2022-11-27T08:14:26.612Z,6.53
2022-11-27T08:16:53.035Z,6.67
2022-11-27T08:19:19.455Z,7.20
2022-11-27T08:21:45.760Z,11.13
2022-11-27T08:24:12.067Z,9.90
2022-11-27T08:26:39.253Z,7.37
2022-11-27T08:29:06.547Z,6.30
2022-11-27T08:31:34.049Z,6.17
2022-11-27T08:34:00.501Z,6.10
2022-11-27T08:36:27.246Z,6.07
2022-11-27T08:38:54.439Z,9.27
2022-11-27T08:41:21.130Z,6.77
2022-11-27T08:43:47.556Z,5.90
2022-11-27T08:46:14.009Z,5.73
2022-11-27T08:48:41.716Z,6.30
2022-11-27T08:51:11.602Z,5.67
2022-11-27T08:53:38.532Z,6.07
2022-11-27T08:56:11.366Z,6.60
2022-11-27T08:58:38.039Z,6.67
2022-11-27T09:01:09.083Z,6.70
2022-11-27T09:03:35.529Z,7.63
2022-11-27T09:06:02.016Z,5.33
2022-11-27T09:08:28.316Z,6.73
2022-11-27T09:10:54.628Z,7.10
2022-11-27T09:13:20.991Z,5.60
2022-11-27T09:15:47.319Z,5.20
2022-11-27T09:18:13.617Z,5.33
2022-11-27T09:20:39.923Z,4.73
2022-11-27T09:23:10.122Z,5.50
2022-11-27T09:25:39.539Z,4.87
2022-11-27T09:28:05.851Z,3.97
2022-11-27T09:30:32.228Z,5.30
2022-11-27T09:32:58.523Z,3.77
2022-11-27T09:35:24.903Z,4.37
2022-11-27T09:37:51.283Z,4.50
2022-11-27T09:40:17.818Z,4.50
2022-11-27T09:42:52.156Z,5.03
2022-11-27T09:45:18.817Z,5.10
2022-11-27T09:48:13.352Z,4.73
2022-11-27T09:50:50.032Z,4.40
2022-11-27T09:53:33.858Z,3.73
2022-11-27T09:56:06.815Z,4.73
2022-11-27T09:58:42.436Z,4.30
2022-11-27T10:01:13.815Z,4.00
2022-11-27T10:03:43.166Z,3.80
2022-11-27T10:06:28.440Z,4.17
2022-11-27T10:09:15.886Z,4.07
2022-11-27T10:12:05.434Z,4.57
2022-11-27T10:14:49.302Z,3.50
2022-11-27T10:17:27.634Z,3.93
2022-11-27T10:20:23.430Z,3.73
2022-11-27T10:23:08.204Z,4.00
2022-11-27T10:25:40.872Z,3.97
2022-11-27T10:28:29.807Z,4.50
2022-11-27T10:31:02.803Z,4.10
2022-11-27T10:34:04.167Z,4.03
2022-11-27T10:36:44.726Z,4.23
2022-11-27T10:39:34.484Z,3.97
2022-11-27T10:42:10.474Z,4.17
2022-11-27T10:44:52.530Z,4.50
2022-11-27T10:47:22.916Z,4.87
2022-11-27T10:49:49.286Z,3.90
2022-11-27T10:52:18.431Z,4.50
2022-11-27T10:54:50.965Z,3.73
2022-11-27T10:57:47.345Z,4.13
2022-11-27T11:00:24.967Z,3.80
2022-11-27T11:03:03.400Z,4.23
2022-11-27T11:05:41.445Z,3.90
2022-11-27T11:08:19.929Z,4.30
2022-11-27T11:10:51.258Z,4.57
2022-11-27T11:13:21.064Z,4.07
2022-11-27T11:16:14.506Z,4.37
2022-11-27T11:18:52.125Z,4.00
2022-11-27T11:21:32.664Z,4.17
2022-11-27T11:24:12.684Z,4.40
2022-11-27T11:26:43.805Z,4.83
2022-11-27T11:29:31.355Z,4.53
2022-11-27T11:32:03.337Z,3.90
2022-11-27T11:34:31.137Z,4.03
2022-11-27T11:37:01.918Z,4.13
2022-11-27T11:39:35.007Z,4.57
2022-11-27T11:42:09.351Z,5.17
2022-11-27T11:44:38.313Z,5.90
2022-11-27T11:47:05.046Z,6.80
2022-11-27T11:49:35.902Z,4.97
2022-11-27T11:52:26.972Z,4.40
2022-11-27T11:55:19.084Z,4.33
2022-11-27T11:58:13.585Z,5.00
2022-11-27T12:01:18.911Z,4.40
2022-11-27T12:03:54.604Z,4.40
2022-11-27T12:06:28.628Z,4.67
2022-11-27T12:09:04.817Z,4.13
2022-11-27T12:11:40.537Z,4.47
2022-11-27T12:14:22.661Z,4.37
2022-11-27T12:17:26.677Z,4.40
2022-11-27T12:20:05.255Z,5.27
2022-11-27T12:22:40.007Z,4.97
2022-11-27T12:25:33.784Z,4.93
2022-11-27T12:28:18.704Z,4.63
2022-11-27T12:30:59.486Z,5.20
2022-11-27T12:33:28.620Z,5.10
2022-11-27T12:36:23.139Z,4.30
2022-11-27T12:39:09.341Z,4.10
2022-11-27T12:42:00.579Z,4.40
2022-11-27T12:44:31.569Z,4.60
2022-11-27T12:47:02.512Z,4.63
2022-11-27T12:49:34.592Z,4.73
2022-11-27T12:52:09.930Z,4.47
2022-11-27T12:55:02.984Z,4.60
2022-11-27T12:57:41.799Z,4.03
2022-11-27T13:00:15.968Z,4.83
2022-11-27T13:03:00.879Z,4.37
2022-11-27T13:05:32.271Z,4.00
2022-11-27T13:08:04.378Z,4.40
2022-11-27T13:10:38.120Z,4.33
2022-11-27T13:13:05.993Z,4.47
2022-11-27T13:15:43.441Z,4.90
2022-11-27T13:18:18.588Z,5.50
2022-11-27T13:20:51.994Z,5.57
2022-11-27T13:23:20.268Z,5.20
2022-11-27T13:25:51.889Z,5.77
2022-11-27T13:28:40.952Z,5.27
2022-11-27T13:31:09.212Z,5.50
2022-11-27T13:33:41.165Z,5.27
2022-11-27T13:36:19.412Z,4.17
2022-11-27T13:38:51.877Z,5.53
2022-11-27T13:41:31.722Z,5.03
2022-11-27T13:43:58.531Z,5.83
2022-11-27T13:46:27.734Z,5.57
2022-11-27T13:49:00.442Z,5.00
2022-11-27T13:51:32.387Z,6.37
2022-11-27T13:54:15.617Z,4.23
2022-11-27T13:56:42.526Z,5.20
2022-11-27T13:59:17.655Z,3.67
2022-11-27T14:01:55.654Z,5.37
2022-11-27T14:04:22.010Z,5.00
2022-11-27T14:06:58.277Z,4.60
2022-11-27T14:09:51.305Z,5.40
2022-11-27T14:12:32.843Z,5.70
2022-11-27T14:15:03.710Z,6.50
2022-11-27T14:17:44.636Z,6.67
2022-11-27T14:20:11.288Z,5.93
2022-11-27T14:23:07.281Z,6.13
2022-11-27T14:25:33.682Z,6.33
2022-11-27T14:28:10.795Z,5.90
2022-11-27T14:30:46.240Z,8.60
2022-11-27T14:33:22.205Z,12.77
2022-11-27T14:35:57.563Z,6.27
2022-11-27T14:38:24.779Z,6.37
2022-11-27T14:40:55.601Z,6.00
2022-11-27T14:43:28.559Z,7.83
2022-11-27T14:45:58.923Z,6.07
2022-11-27T14:48:41.340Z,5.50
2022-11-27T14:51:13.919Z,6.13
2022-11-27T14:53:40.931Z,7.43
2022-11-27T14:56:07.503Z,6.93
2022-11-27T14:58:34.027Z,7.57
2022-11-27T15:01:05.974Z,5.80
2022-11-27T15:03:33.380Z,5.70
2022-11-27T15:06:02.835Z,6.17
2022-11-27T15:08:34.415Z,6.40
2022-11-27T15:11:02.747Z,5.80
2022-11-27T15:13:31.997Z,6.17
2022-11-27T15:16:15.574Z,6.50
2022-11-27T15:18:48.208Z,6.30
2022-11-27T15:21:20.515Z,5.97
2022-11-27T15:23:49.626Z,5.50
2022-11-27T15:26:33.187Z,4.90
2022-11-27T15:28:59.644Z,6.30
2022-11-27T15:31:37.614Z,7.70
2022-11-27T15:34:20.361Z,6.77
2022-11-27T15:37:03.620Z,6.10
2022-11-27T15:39:38.132Z,5.80
2022-11-27T15:42:09.380Z,5.70
2022-11-27T15:44:36.282Z,6.67
2022-11-27T15:47:04.907Z,6.37
2022-11-27T15:49:31.382Z,6.13
2022-11-27T15:51:58.141Z,8.07
2022-11-27T15:54:25.152Z,7.97
2022-11-27T15:56:52.008Z,7.13
2022-11-27T15:59:20.563Z,6.83
2022-11-27T16:01:47.603Z,9.27
2022-11-27T16:04:14.012Z,7.87
2022-11-27T16:06:40.368Z,7.67
2022-11-27T16:09:06.779Z,7.70
2022-11-27T16:11:34.047Z,6.13
2022-11-27T16:14:00.450Z,6.03
2022-11-27T16:16:26.962Z,5.33
2022-11-27T16:18:57.438Z,5.10
2022-11-27T16:21:29.237Z,4.40
2022-11-27T16:23:58.788Z,5.67
2022-11-27T16:26:26.304Z,5.17
2022-11-27T16:28:52.999Z,5.27
2022-11-27T16:31:20.120Z,4.70
2022-11-27T16:33:46.856Z,5.23
2022-11-27T16:36:16.058Z,4.87
2022-11-27T16:38:43.412Z,4.77
2022-11-27T16:41:15.223Z,5.43
2022-11-27T16:43:45.162Z,4.47
2022-11-27T16:46:13.921Z,4.20
2022-11-27T16:48:43.187Z,4.23
2022-11-27T16:51:14.206Z,5.37
2022-11-27T16:53:42.316Z,5.57
2022-11-27T16:56:10.542Z,5.80
2022-11-27T16:58:39.840Z,6.57
2022-11-27T17:01:15.401Z,7.77
2022-11-27T17:03:41.989Z,7.10
2022-11-27T17:06:10.682Z,5.10
2022-11-27T17:08:37.518Z,6.23
2022-11-27T17:11:15.860Z,6.10
2022-11-27T17:13:42.169Z,5.97
2022-11-27T17:16:08.829Z,5.07
2022-11-27T17:18:39.954Z,4.63
2022-11-27T17:21:14.057Z,5.40
2022-11-27T17:23:43.001Z,5.47
2022-11-27T17:26:11.791Z,5.57
2022-11-27T17:28:38.407Z,7.13
2022-11-27T17:31:13.193Z,9.10
2022-11-27T17:33:39.698Z,7.13
2022-11-27T17:36:06.592Z,6.40
2022-11-27T17:38:33.688Z,6.70
2022-11-27T17:41:11.960Z,5.80
2022-11-27T17:43:39.296Z,6.33
2022-11-27T17:46:11.171Z,8.07
2022-11-27T17:48:38.490Z,6.03
2022-11-27T17:51:06.428Z,7.73
2022-11-27T17:53:33.132Z,5.23
2022-11-27T17:56:07.212Z,5.77
2022-11-27T17:58:33.974Z,7.67
2022-11-27T18:01:02.447Z,5.33
2022-11-27T18:03:29.619Z,6.13
2022-11-27T18:05:56.751Z,5.73
2022-11-27T18:08:23.748Z,5.53
2022-11-27T18:10:50.109Z,5.47
2022-11-27T18:13:17.815Z,5.33
2022-11-27T18:15:44.217Z,5.33
2022-11-27T18:18:10.625Z,5.70
2022-11-27T18:20:37.018Z,4.80
2022-11-27T18:23:03.343Z,5.73
2022-11-27T18:25:29.803Z,6.13
2022-11-27T18:27:57.840Z,5.53
2022-11-27T18:30:24.882Z,5.87
2022-11-27T18:32:51.205Z,5.80
2022-11-27T18:35:17.700Z,4.43
2022-11-27T18:37:44.033Z,5.57
2022-11-27T18:40:10.711Z,5.23
2022-11-27T18:42:37.045Z,5.83
2022-11-27T18:45:03.742Z,4.40
2022-11-27T18:47:30.143Z,5.77
2022-11-27T18:49:59.536Z,5.27
2022-11-27T18:52:25.843Z,5.10
2022-11-27T18:54:52.584Z,5.27
2022-11-27T18:57:19.484Z,5.47
2022-11-27T18:59:45.914Z,5.20
2022-11-27T19:02:13.104Z,4.83
2022-11-27T19:04:39.922Z,5.77
2022-11-27T19:07:06.637Z,4.90
2022-11-27T19:09:33.563Z,5.80
2022-11-27T19:12:00.118Z,5.13
2022-11-27T19:14:26.552Z,4.73
2022-11-27T19:16:53.066Z,5.20
2022-11-27T19:22:07.826Z,4.73
2022-11-27T19:24:34.484Z,4.67
2022-11-27T19:27:00.823Z,4.80
2022-11-27T19:29:27.130Z,5.77
2022-11-27T19:31:55.997Z,6.90
2022-11-27T19:34:22.697Z,6.37
2022-11-27T19:36:49.019Z,6.03
2022-11-27T19:39:15.713Z,6.20
2022-11-27T19:41:44.748Z,6.10
2022-11-27T19:44:12.577Z,5.87
2022-11-27T19:46:40.814Z,5.70
2022-11-27T19:49:12.093Z,6.07
2022-11-27T19:51:40.326Z,5.43
2022-11-27T19:54:15.549Z,5.03
2022-11-27T19:56:42.607Z,5.57
2022-11-27T19:59:10.881Z,5.57
2022-11-27T20:01:40.161Z,5.43
2022-11-27T20:04:07.820Z,6.47
2022-11-27T20:06:34.290Z,5.67
2022-11-27T20:09:03.981Z,5.13
2022-11-27T20:11:35.036Z,5.90
2022-11-27T20:14:04.775Z,5.53
2022-11-27T20:16:33.339Z,6.17
2022-11-27T20:19:02.681Z,6.33
2022-11-27T20:21:29.228Z,5.63
2022-11-27T20:23:57.135Z,8.40
2022-11-27T20:26:25.961Z,12.20
2022-11-27T20:28:53.934Z,8.80
2022-11-27T20:31:24.135Z,6.50
2022-11-27T20:33:56.339Z,14.93
2022-11-27T20:36:24.880Z,7.73
2022-11-27T20:38:52.544Z,8.37
2022-11-27T20:41:20.363Z,5.83
2022-11-27T20:43:50.468Z,6.40
2022-11-27T20:46:17.977Z,6.37
2022-11-27T20:48:49.224Z,5.43
2022-11-27T20:51:21.263Z,4.60
2022-11-27T20:53:49.112Z,7.10
2022-11-27T20:56:18.044Z,5.93
2022-11-27T20:58:46.127Z,5.60
2022-11-27T21:01:29.417Z,5.90
2022-11-27T21:03:57.367Z,6.03
2022-11-27T21:06:27.616Z,6.20
2022-11-27T21:08:54.772Z,6.17
2022-11-27T21:11:27.172Z,5.53
2022-11-27T21:13:59.662Z,6.43
2022-11-27T21:16:31.663Z,5.47
2022-11-27T21:19:01.940Z,6.33
2022-11-27T21:21:29.283Z,6.63
2022-11-27T21:23:55.848Z,8.43
2022-11-27T21:26:23.400Z,7.83
2022-11-27T21:28:50.230Z,6.90
2022-11-27T21:31:20.274Z,8.40
2022-11-27T21:33:54.923Z,6.30
2022-11-27T21:36:25.570Z,6.13
2022-11-27T21:38:52.750Z,6.47
2022-11-27T21:41:19.945Z,6.40
2022-11-27T21:43:48.596Z,6.10
2022-11-27T21:46:18.867Z,7.43
2022-11-27T21:48:47.341Z,6.30
2022-11-27T21:51:15.054Z,6.30
2022-11-27T21:53:42.638Z,6.50
2022-11-27T21:56:11.029Z,6.23
2022-11-27T21:58:37.425Z,6.80
2022-11-27T22:01:06.206Z,6.33
2022-11-27T22:03:32.951Z,6.90
2022-11-27T22:06:01.733Z,6.00
2022-11-27T22:08:29.464Z,6.23
2022-11-27T22:10:55.977Z,7.20
2022-11-27T22:13:23.299Z,7.07
2022-11-27T22:15:49.868Z,7.70
2022-11-27T22:18:17.104Z,7.60
2022-11-27T22:20:43.514Z,9.77
2022-11-27T22:23:09.889Z,8.00
2022-11-27T22:25:36.695Z,6.77
2022-11-27T22:28:03.187Z,7.53
2022-11-27T22:30:29.706Z,6.30
2022-11-27T22:32:56.469Z,5.93
2022-11-27T22:35:23.761Z,6.90
2022-11-27T22:37:53.341Z,6.90
2022-11-27T22:40:20.098Z,6.80
2022-11-27T22:42:46.927Z,5.70
2022-11-27T22:45:13.360Z,6.10
2022-11-27T22:47:40.008Z,6.07
2022-11-27T22:50:07.292Z,5.87
2022-11-27T22:52:33.635Z,6.53
2022-11-27T22:55:00.030Z,5.63
2022-11-27T22:57:26.737Z,6.27
2022-11-27T22:59:53.143Z,7.17
2022-11-27T23:02:19.555Z,5.77
2022-11-27T23:04:46.172Z,5.87
2022-11-27T23:07:12.720Z,5.40
2022-11-27T23:09:39.292Z,6.20
2022-11-27T23:12:05.723Z,5.27
2022-11-27T23:14:32.107Z,5.73
2022-11-27T23:16:58.740Z,5.37
2022-11-27T23:19:25.221Z,6.00
2022-11-27T23:21:51.702Z,6.57
2022-11-27T23:24:18.179Z,6.43
2022-11-27T23:26:45.619Z,6.07
2022-11-27T23:29:12.694Z,5.67
2022-11-27T23:31:39.296Z,6.57
2022-11-27T23:34:09.003Z,5.37
2022-11-27T23:36:36.331Z,6.13
2022-11-27T23:39:07.829Z,6.37
2022-11-27T23:41:35.025Z,6.07
2022-11-27T23:44:02.025Z,6.20
2022-11-27T23:46:29.497Z,8.20
2022-11-27T23:48:57.421Z,7.30
2022-11-27T23:51:26.576Z,7.07
2022-11-27T23:53:53.731Z,7.43
2022-11-27T23:56:23.811Z,7.93
2022-11-27T23:58:50.432Z,7.07
